Pagina principale
METAR-TAF:

METAR-TAF

Aeroporti :

Asunción, Paraguay

latitudine: 25-16S, longitudine: 057-38W, altezza: 101 m

Osservazione

Il bollettino è stato emesso 22 minuti fa, alle 02:00 UTC
Vento 6 kt da sud/sud-ovest
Temperature 14°C
Umidità 88%
Pressione 1022 hPa
Visibilità 10 km o più
nessuna nube inferiore a 1500 m e nessun cumulonembo

METAR: SGAS 160200Z 21006KT CAVOK 14/12 Q1022

Ora: 22:22 (02:22 UTC)

Previsione

Il bollettino è stato emesso 3 ore e 22 minuti fa, alle 23:00 UTC
Previsione valida dal 16 alle 00 UTC al 17 alle 00 UTC
Vento 6 kt da sud/sud-ovest
Visibilità 10 km o più
nessuna nube inferiore a 1500 m e nessun cumulonembo
Evoluzione graduale
dal 16 alle 15 UTC al 16 alle 18 UTC
Vento 8 kt da sud/sud-est
Visibilità 10 km o più
Nubi sparse ad un'altezza di 3300 ft

TAF: SGAS 152300Z 1600/1700 21006KT CAVOK TX26/1619Z TN13/1609Z BECMG 1615/1618 15008KT 9999 SCT033

Osservazioni e previsioni meteorologiche di più di 4000 aeroporti (messaggi METAR e TAF).

Le stazioni disponibili sono rappresentate dai dischi gialli e rossi sulla carta.

Puntare il mouse per vedere il nome della stazione.

Clicca sopra per visualizzare le osservazioni e previsioni meteorologiche.

Per cambiare la mappa : fare clic sui pulsanti verdi con una croce nera per ingrandire, il pulsante verde con un trattino per diminuire, o sulla freccia verde per le mappe adiacenti.


METAR-TAF: